Aérodrome :
LOGIN :

S'inscrire | Disclaimer

   EN    FR    IT 

 










Légende :    VFR   VFR Marginal   IFR   IFR Intensif   IFR Très Intensif
Visi : 
Plafond : 
>= 8 km
>= 3000ft
5 à 8 km
1000 à 3000 ft
1500m à 5 km
500 à 1000 ft
800 à 1500m
200 à 500 ft
< 800m
< 200 ft
Symboles :   Orages  Brouillard  Fortes neiges  Fortes précipitations  Vent > 20 kt
SIGMETs :   Divers  Orages  Givrage  Turbulence  Onde Orograph.  Cendres Volcan.







- Altitude de l'aérodrome : 2776 ft
- Code IATA : VLL


LEVD - Valladolid

DERNIER METAR :
  • 222130Z 24006KT 9999 FEW045 16/10 Q1017

METARs EXPIRÉS :
  • 222100Z 21007KT 170V230 9999 FEW042 17/09 Q1016
  • 222030Z 08003KT 9999 SCT042 17/10 Q1016
  • 222000Z 11003KT 9999 SCT038 17/09 Q1015
  • 221930Z 10003KT 9999 SCT035 18/11 Q1015
  • 221900Z 10003KT 9999 SCT030TCU 20/10 Q1015

TAF TAF LEVD
Valide du 22 à 18h jusqu'au 23 à 18h UTC


221700Z 2218/2318 VRB05KT 9999 FEW030 TX26/2315Z TN13/2306Z
TEMPO 2218/2219 FEW030TCU
TEMPO 2223/2308 06010KT
PROB40
TEMPO 2313/2318 FEW040TCU
Pas de NOTAMs connus pour ce terrain.



MET'MAP, la Météo Aéronautique d'un coup d'oeil ! - Copyright ORBIFLY Décembre 2007 - Disclaimer

ORBIFLY MET'MAP TEAM :

Programmation & Développement : Alexandra Zaïnal
Conception & Développement : Baudouin d'Aumeries
Co-Programmation & Développement : Marc-Olivier Méhu
Soutien technique & logistique : Manuel Goepfert

Contact : metmap@orbifly.com




SOURCES & CREDITS :

   NOAA